M I D A S
Marine Information and Data Acquisition System
Tripno 1567 of the Zeeleeuw from 2008-09-16 07:08:45 to 2008-09-16 13:56:45
Back to CruiseResearch ActivitiesStationsMapUnderway DataData graphs

EquipmentUnitsComment
TimeDGPSUTC
LatitudeDGPSDM.mWGS84
LongitudeDGPSDM.mWGS84
HeadingGyrodeg 
SOGDGPSknotsSpeed over ground
COGDGPSdegCourse over ground
DepthEcho soundermeters200 kHz
Missing or incorrect values are displayed as -999
Navigation data collected by the RV Zeeleeuw from 2008-09-16 07:08:45 to 2008-09-16 13:56:45
Time Latitude Longitude Heading SOG COG Depth
2008-09-16 07:10:50 51°13.636 2°55.996 109.5 0.4 282 -999
2008-09-16 07:12:50 51°13.689 2°55.802 115.5 4.09 296 -999
2008-09-16 07:14:50 51°13.703 2°55.722 80.7 1.3 273 -999
2008-09-16 07:16:50 51°13.863 2°55.615 332.1 6.4 331 -999
2008-09-16 07:18:50 51°14.114 2°55.417 333.3 8.4 334 -999
2008-09-16 07:20:50 51°14.324 2°55.127 319.3 8.4 317 -999
2008-09-16 07:22:50 51°14.567 2°54.702 313.6 11.09 312 -999
2008-09-16 07:24:50 51°14.892 2°54.333 329.1 12.09 325 -999
2008-09-16 07:26:50 51°15.221 2°53.991 333.3 11.8 328 -999
2008-09-16 07:28:50 51°15.571 2°53.71 335.1 12 329 -999
2008-09-16 07:30:50 51°15.942 2°53.513 346.8 11.69 341 -999
2008-09-16 07:32:50 51°16.308 2°53.29 347.5 11.8 342 -999
2008-09-16 07:34:50 51°16.655 2°52.985 336 11.9 330 -999
2008-09-16 07:36:50 51°16.988 2°52.67 334.3 11.5 329 -999
2008-09-16 07:38:50 51°17.33 2°52.412 337.3 11.4 332 -999
2008-09-16 07:40:50 51°17.697 2°52.329 359 11.09 355 -999
2008-09-16 07:42:50 51°18.066 2°52.268 358.5 11.09 354 -999
2008-09-16 07:44:50 51°18.394 2°52.4 13 10.8 16 -999
2008-09-16 07:46:50 51°18.529 2°52.934 67.2 11 70 -999
2008-09-16 07:48:50 51°18.67 2°53.465 63.7 10.9 67 -999
2008-09-16 07:50:50 51°18.768 2°54.019 71.5 10.8 74 -999
2008-09-16 07:52:50 51°18.873 2°54.569 69.7 10.8 74 -999
2008-09-16 07:54:50 51°18.984 2°55.114 68.4 10.8 71 -999
2008-09-16 07:56:50 51°19.102 2°55.654 68 10.69 69 -999
2008-09-16 07:58:50 51°19.221 2°56.193 67.4 10.69 71 -999
2008-09-16 08:00:50 51°19.341 2°56.734 67.7 10.69 71 -999
2008-09-16 08:02:50 51°19.462 2°57.273 67.7 10.8 70 -999
2008-09-16 08:04:50 51°19.591 2°57.806 63.8 10.69 67 -999
2008-09-16 08:06:50 51°19.708 2°58.343 68 10.69 71 -999
2008-09-16 08:08:50 51°19.841 2°58.864 64 10.5 66 -999
2008-09-16 08:10:50 51°19.976 2°59.384 65.9 10.69 68 -999
2008-09-16 08:12:50 51°20.108 2°59.911 66.2 10.69 69 -999
2008-09-16 08:14:50 51°20.223 3°0.449 70.2 10.69 72 -999
2008-09-16 08:16:50 51°20.352 3°0.964 64.5 10.4 65 -999
2008-09-16 08:18:50 51°20.463 3°1.484 69 10.3 73 -999
2008-09-16 08:20:50 51°20.593 3°1.994 66.2 10.4 68 -999
2008-09-16 08:22:50 51°20.721 3°2.515 66.7 10.5 69 -999
2008-09-16 08:24:50 51°20.836 3°3.052 70.7 10.69 73 -999
2008-09-16 08:26:50 51°20.959 3°3.59 68.5 10.69 69 -999
2008-09-16 08:28:50 51°21.097 3°4.117 67.2 10.8 69 -999
2008-09-16 08:30:50 51°21.238 3°4.64 66 10.69 67 -999
2008-09-16 08:32:50 51°21.358 3°5.171 69 10.8 70 -999
2008-09-16 08:34:50 51°21.485 3°5.707 68.2 10.59 70 -999
2008-09-16 08:36:50 51°21.629 3°6.229 63.7 10.69 63 -999
2008-09-16 08:38:50 51°21.759 3°6.764 68.2 10.8 68 -999
2008-09-16 08:40:50 51°21.862 3°7.313 73.4 10.8 74 -999
2008-09-16 08:42:50 51°21.904 3°7.879 81.7 10.8 87 -999
2008-09-16 08:44:50 51°21.939 3°8.459 80.7 10.9 83 -999
2008-09-16 08:46:50 51°21.929 3°8.82 89.9 5.5 99 -999
2008-09-16 08:48:50 51°21.891 3°8.901 101.7 1.69 130 -999
2008-09-16 08:50:50 51°21.813 3°8.911 143.5 2.79 174 -999
2008-09-16 08:52:50 51°21.757 3°8.721 249.5 4.2 250 -999
2008-09-16 08:54:50 51°21.759 3°8.5 285.3 4.09 273 -999
2008-09-16 08:56:50 51°21.762 3°8.287 282.1 4 271 -999
2008-09-16 08:58:50 51°21.769 3°8.077 286.3 4 273 -999
2008-09-16 09:00:50 51°21.778 3°7.871 286.8 3.79 274 -999
2008-09-16 09:02:50 51°21.787 3°7.667 285.3 3.89 273 -999
2008-09-16 09:04:50 51°21.796 3°7.462 285.8 3.79 274 -999
2008-09-16 09:06:50 51°21.807 3°7.255 287.3 3.89 275 -999
2008-09-16 09:08:50 51°21.817 3°7.045 287.1 4 275 -999
2008-09-16 09:10:50 51°21.819 3°6.832 282.1 4 271 -999
2008-09-16 09:12:50 51°21.813 3°6.616 275.1 4.09 267 -999
2008-09-16 09:14:50 51°21.806 3°6.398 276 4.09 268 -999
2008-09-16 09:16:50 51°21.8 3°6.179 276 4.09 268 -999
2008-09-16 09:18:50 51°21.794 3°5.961 275.6 4.09 267 -999
2008-09-16 09:20:50 51°21.787 3°5.744 275.8 4.09 267 -999
2008-09-16 09:22:50 51°21.782 3°5.525 276.3 4.09 268 -999
2008-09-16 09:24:50 51°21.777 3°5.306 276.3 4.09 269 -999
2008-09-16 09:26:50 51°21.806 3°5.14 307.6 3.29 292 -999
2008-09-16 09:28:50 51°21.834 3°5.063 351.8 1.6 299 -999
2008-09-16 09:30:50 51°21.843 3°4.994 355.1 1.3 282 -999
2008-09-16 09:32:50 51°21.843 3°4.926 349.8 1.3 267 -999
2008-09-16 09:34:50 51°21.855 3°4.91 29.5 0.5 325 -999
2008-09-16 09:36:50 51°21.816 3°5.064 108.2 3.7 124 -999
2008-09-16 09:38:50 51°21.783 3°5.234 96.5 3.39 110 -999
2008-09-16 09:40:50 51°21.776 3°5.396 82.5 3.1 92 -999
2008-09-16 09:42:50 51°21.763 3°5.552 83.7 3.1 96 -999
2008-09-16 09:44:50 51°21.667 3°5.639 136.4 3.39 156 -999
2008-09-16 09:46:50 51°21.582 3°5.695 131.1 2.7 156 -999
2008-09-16 09:48:50 51°21.498 3°5.754 132 2.79 157 -999
2008-09-16 09:50:50 51°21.412 3°5.81 133.4 2.79 158 -999
2008-09-16 09:52:50 51°21.327 3°5.868 132.1 2.79 157 -999
2008-09-16 09:54:50 51°21.245 3°5.931 130.6 2.7 153 -999
2008-09-16 09:56:50 51°21.156 3°5.982 136.5 2.89 159 -999
2008-09-16 09:58:50 51°21.05 3°5.965 165 3.29 185 -999
2008-09-16 10:00:50 51°20.95 3°5.886 193.5 3.29 207 -999
2008-09-16 10:02:50 51°20.876 3°5.779 213.5 3 222 -999
2008-09-16 10:04:50 51°20.84 3°5.64 253.9 2.89 247 -999
2008-09-16 10:06:50 51°20.816 3°5.495 267 2.89 255 -999
2008-09-16 10:08:50 51°20.793 3°5.349 268.6 2.79 257 -999
2008-09-16 10:10:50 51°20.769 3°5.201 267.3 2.89 256 -999
2008-09-16 10:12:50 51°20.748 3°5.056 267.8 2.79 257 -999
2008-09-16 10:14:50 51°20.74 3°4.917 285.6 2.5 268 -999
2008-09-16 10:16:50 51°20.745 3°4.792 290.8 2.39 273 -999
2008-09-16 10:18:50 51°20.754 3°4.699 314.1 1.69 279 -999
2008-09-16 10:20:50 51°20.753 3°4.628 316.8 1.3 268 -999
2008-09-16 10:22:50 51°20.697 3°4.283 249.8 7.9 249 -999
2008-09-16 10:24:50 51°20.583 3°3.646 256.6 12.5 255 -999
2008-09-16 10:26:50 51°20.469 3°3.01 255.8 12.5 254 -999
2008-09-16 10:28:50 51°20.349 3°2.372 255.5 12.5 253 -999
2008-09-16 10:30:50 51°20.228 3°1.737 255.5 12.5 253 -999
2008-09-16 10:32:50 51°20.087 3°1.106 250.5 12.5 248 -999
2008-09-16 10:34:50 51°19.95 3°0.482 254 12.59 253 -999
2008-09-16 10:36:50 51°19.806 2°59.855 250.4 12.5 249 -999
2008-09-16 10:38:50 51°19.669 2°59.253 251.6 12.19 250 -999
2008-09-16 10:40:50 51°19.534 2°58.627 252.9 12.19 251 -999
2008-09-16 10:42:50 51°19.412 2°58 255.3 12.4 255 -999
2008-09-16 10:44:50 51°19.284 2°57.381 254.6 12.4 252 -999
2008-09-16 10:46:50 51°19.15 2°56.754 253.5 12.4 251 -999
2008-09-16 10:48:50 51°19.025 2°56.128 254.9 12.4 252 -999
2008-09-16 10:50:50 51°18.887 2°55.512 251.8 12.3 250 -999
2008-09-16 10:52:50 51°18.749 2°54.901 253.3 12.19 250 -999
2008-09-16 10:54:50 51°18.619 2°54.293 252.5 12.19 250 -999
2008-09-16 10:56:50 51°18.502 2°53.667 256.3 12.19 254 -999
2008-09-16 10:58:50 51°18.379 2°53.05 252 12.19 251 -999
2008-09-16 11:00:50 51°18.248 2°52.456 252.5 12 251 -999
2008-09-16 11:02:50 51°18.059 2°51.897 241.5 11.9 241 -999
2008-09-16 11:04:50 51°17.826 2°51.393 233.5 11.9 232 -999
2008-09-16 11:06:50 51°17.577 2°50.903 233 11.9 231 -999
2008-09-16 11:08:50 51°17.329 2°50.424 230.6 11.69 229 -999
2008-09-16 11:10:50 51°17.086 2°49.936 234 11.8 231 -999
2008-09-16 11:12:50 51°16.801 2°49.493 224.5 11.9 225 -999
2008-09-16 11:14:50 51°16.521 2°49.062 225.4 11.69 223 -999
2008-09-16 11:16:50 51°16.294 2°48.574 236.9 11.4 235 -999
2008-09-16 11:18:50 51°16.068 2°48.096 234 11.4 232 -999
2008-09-16 11:20:50 51°15.84 2°47.637 234.3 10.9 233 -999
2008-09-16 11:22:50 51°15.622 2°47.175 233.8 10.9 233 -999
2008-09-16 11:24:50 51°15.408 2°46.718 235.1 10.69 232 -999
2008-09-16 11:26:50 51°15.191 2°46.268 234.4 10.8 232 -999
2008-09-16 11:28:50 51°14.984 2°45.807 236 10.69 233 -999
2008-09-16 11:30:50 51°14.775 2°45.357 234.9 10.5 233 -999
2008-09-16 11:32:50 51°14.559 2°44.919 231.5 10.5 231 -999
2008-09-16 11:34:50 51°14.347 2°44.476 234.6 10.5 233 -999
2008-09-16 11:36:50 51°14.134 2°44.034 233.4 10.5 231 -999
2008-09-16 11:38:50 51°13.924 2°43.591 233.5 10.5 232 -999
2008-09-16 11:40:50 51°13.72 2°43.142 233.5 10.5 235 -999
2008-09-16 11:42:50 51°13.515 2°42.694 233.9 10.5 236 -999
2008-09-16 11:44:50 51°13.315 2°42.244 233.4 10.4 234 -999
2008-09-16 11:46:50 51°13.114 2°41.799 232.6 10.4 234 -999
2008-09-16 11:48:50 51°12.908 2°41.359 233.3 10.3 234 -999
2008-09-16 11:50:50 51°12.713 2°40.911 235 10.3 237 -999
2008-09-16 11:52:50 51°12.517 2°40.465 236 10.19 237 -999
2008-09-16 11:54:50 51°12.313 2°40.03 232.9 10.19 235 -999
2008-09-16 11:56:50 51°12.116 2°39.585 233.1 10.3 234 -999
2008-09-16 11:58:50 51°11.892 2°39.177 227.8 10.3 229 -999
2008-09-16 13:00:50 51°10.352 2°36.233 73.2 9.3 71 -999
2008-09-16 13:02:50 51°10.464 2°36.893 77.5 13.19 75 -999
2008-09-16 13:04:50 51°10.578 2°37.609 78.5 14 75 -999
2008-09-16 13:06:50 51°10.692 2°38.345 78.5 14.3 77 -999
2008-09-16 13:08:50 51°10.805 2°39.081 79.4 14.3 77 -999
2008-09-16 13:10:50 51°10.878 2°39.805 82.7 13.69 80 -999
2008-09-16 13:12:50 51°10.966 2°40.521 84.2 13.8 79 -999
2008-09-16 13:14:50 51°11.076 2°41.228 79.4 13.8 76 -999
2008-09-16 13:16:50 51°11.164 2°41.94 78.7 13.69 78 -999
2008-09-16 13:18:50 51°11.2 2°42.657 88.7 13.59 86 -999
2008-09-16 13:20:50 51°11.274 2°43.366 81 13.59 77 -999
2008-09-16 13:22:50 51°11.411 2°44.055 72.7 13.59 72 -999
2008-09-16 13:24:50 51°11.555 2°44.742 72.5 13.69 72 -999
2008-09-16 13:26:50 51°11.704 2°45.424 72 13.59 72 -999
2008-09-16 13:28:50 51°11.835 2°46.115 73.7 13.59 74 -999
2008-09-16 13:30:50 51°12.004 2°46.786 68.7 13.59 68 -999
2008-09-16 13:32:50 51°12.187 2°47.451 69 13.69 68 -999
2008-09-16 13:34:50 51°12.403 2°48.093 62.2 13.8 62 -999
2008-09-16 13:36:50 51°12.62 2°48.737 62.1 13.8 62 -999
2008-09-16 13:38:50 51°12.837 2°49.377 62.1 13.69 61 -999
2008-09-16 13:40:50 51°13.055 2°50.013 61 13.69 62 -999
2008-09-16 13:42:50 51°13.246 2°50.667 67 13.59 65 -999
2008-09-16 13:44:50 51°13.446 2°51.316 62.8 13.59 62 -999
2008-09-16 13:46:50 51°13.643 2°51.961 65.7 13.5 65 -999
2008-09-16 13:48:50 51°13.846 2°52.595 65 13.4 65 -999
2008-09-16 13:50:50 51°14.062 2°53.217 63.8 13.4 63 -999
2008-09-16 13:52:50 51°14.29 2°53.82 58.3 13.19 59 -999
2008-09-16 13:54:50 51°14.449 2°54.468 71.5 13.19 69 -999